Etusivu
METAR-TAF:

METAR-TAF

Lentoasemat :

Sønderborg, Tanska

Leveyspiiri: 54-58N, Pituuspiiri: 009-47E, korkeus merenpinnasta: 7 m

Tämänhetkinen sää

Tämä raportti tehtiin 38 minuuttia sitten, kello 17.20 UTC
Tuuli 13 kn idästä
Lämpötila 6°C
Kosteus 100%
Ilmanpaine 1007 hPa
Näkyvyys: 2900 m
utua,

METAR: EKSB 031720Z AUTO 09013KT 2900 BR OVC005/// 06/06 Q1007

Aika: 18:58 (17:58 UTC)

Sääennuste

Tämä raportti tehtiin 4 tuntia ja 1 minuuttia sitten, kello 13.57 UTC
Ennuste voimassa 03. päivästä klo 14 UTC - 03. päivään klo 18 UTC
Tuuli 10 kn idästä
Näkyvyys: 1200 m
Hajonneita pilviä 200 ft:n korkeudessa
utua
Ajoittain
03. päivästä klo 14 UTC - 03. päivään klo 18 UTC
Näkyvyys: 4000 m
utua,

TAF: EKSB 031357Z 0314/0318 09010KT 1200 BR BKN002 TEMPO 0314/0318 4000 BR

Säähavainnot ja -ennusteet yli 4000 lentoasemalta (METAR- ja TAF-raportit).

Käytössä olevat sääasemat on merkitty karttaan keltaisilla ja punaisilla pisteillä.

Aseta hiiri pisteen päälle nähdäksesi sääaseman nimen.

Klikkaa sitten nähdäksesi säähavainnot ja -ennusteet.

Kartan vaihtaminen: klikkaa mustalla rastilla varustettuja vihreitä pisteitä, niin voit zoomata sisään; viivalla varustettua vihreää pistettä, niin voit zoomata ulos tai vihreitä nuolia, niin pääset viereisille kartoille.


METAR-TAF: